Time;durP1;ratioP1;P1;durP2;ratioP2;P2;SDS_P1;SDS_P2;PMS_P1;PMS_P2;Temp;Humidity;BMP_temperature;BMP_pressure;BME280_temperature;BME280_humidity;BME280_pressure;Samples;Min_cycle;Max_cycle;Signal;HPM_P1;HPM_P2
2022/10/06 00:00:05;;;;;;;;;;;;;;;;;;4912904;29;20303;-88
2022/10/06 00:02:30;;;;;;;;;;;;;;;;;;4903852;29;19947;-76
2022/10/06 00:04:56;;;;;;;;;;;;;;;;;;4898839;29;20334;-76
2022/10/06 00:07:21;;;;;;;;;;;;;;;;;;4915480;29;20340;-75
2022/10/06 00:09:46;;;;;;;;;;;;;;;;;;4901988;29;19974;-77
2022/10/06 00:12:12;;;;;;;;;;;;;;;;;;4888453;29;19919;-82
2022/10/06 00:14:37;;;;;;;;;;;;;;;;;;4921691;29;19994;-87
2022/10/06 00:17:02;;;;;;;;;;;;;;;;;;4888499;29;20441;-86
2022/10/06 00:19:28;;;;;;;;;;;;;;;;;;4872295;29;19994;-86
2022/10/06 00:21:53;;;;;;;;;;;;;;;;;;4895440;29;19915;-87
2022/10/06 00:24:19;;;;;;;;;;;;;;;;;;4889343;29;20223;-87
2022/10/06 00:26:46;;;;;;;;;;;;;;;;;;4912105;29;19942;-86
2022/10/06 00:29:12;;;;;;;;;;;;;;;;;;4913378;29;19926;-85
2022/10/06 00:31:38;;;;;;;;;;;;;;;;;;4888043;29;19915;-85
2022/10/06 00:34:04;;;;;;;;;;;;;;;;;;4903149;29;20401;-85
2022/10/06 00:36:29;;;;;;;;;;;;;;;;;;4904147;29;19915;-86
2022/10/06 00:38:55;;;;;;;;;;;;;;;;;;4907270;29;20271;-85
2022/10/06 00:41:21;;;;;;;;;;;;;;;;;;4903319;29;19943;-86
2022/10/06 00:43:46;;;;;;;;;;;;;;;;;;4902999;29;19928;-86
2022/10/06 00:46:12;;;;;;;;;;;;;;;;;;4919934;29;19919;-85
2022/10/06 00:48:37;;;;;;;;;;;;;;;;;;4917847;29;19919;-86
2022/10/06 00:51:02;;;;;;;;;;;;;;;;;;4917839;29;19915;-87
2022/10/06 00:53:28;;;;;;;;;;;;;;;;;;4917742;29;19923;-86
2022/10/06 00:55:53;;;;;;;;;;;;;;;;;;4900835;29;19915;-85
2022/10/06 00:58:19;;;;;;;;;;;;;;;;;;4921418;29;20054;-86
2022/10/06 01:00:44;;;;;;;;;;;;;;;;;;4921434;29;19958;-87
2022/10/06 01:03:09;;;;;;;;;;;;;;;;;;4921349;29;20379;-87
2022/10/06 01:05:35;;;;;;;;;;;;;;;;;;4906024;29;19942;-87
2022/10/06 01:08:00;;;;;;;;;;;;;;;;;;4906069;29;20283;-87
2022/10/06 01:10:25;;;;;;;;;;;;;;;;;;4924117;29;19919;-88
2022/10/06 01:12:51;;;;;;;;;;;;;;;;;;4917937;29;19922;-87
2022/10/06 01:15:16;;;;;;;;;;;;;;;;;;4924010;29;19915;-87
2022/10/06 01:17:41;;;;;;;;;;;;;;;;;;4909286;29;19986;-86
2022/10/06 01:20:07;;;;;;;;;;;;;;;;;;4909014;29;19961;-87
2022/10/06 01:22:34;;;;;;;;;;;;;;;;;;4910404;29;19938;-88
2022/10/06 01:25:00;;;;;;;;;;;;;;;;;;4922417;29;20013;-87
2022/10/06 01:27:25;;;;;;;;;;;;;;;;;;4905087;29;20031;-86
2022/10/06 01:29:51;;;;;;;;;;;;;;;;;;4923942;29;19942;-87
2022/10/06 01:32:16;;;;;;;;;;;;;;;;;;4927907;29;19974;-87
2022/10/06 01:34:41;;;;;;;;;;;;;;;;;;4909134;29;19926;-88
2022/10/06 01:37:07;;;;;;;;;;;;;;;;;;4904586;29;19962;-88
2022/10/06 01:39:32;;;;;;;;;;;;;;;;;;4904384;29;19974;-87
2022/10/06 01:41:57;;;;;;;;;;;;;;;;;;4904508;29;19962;-86
2022/10/06 01:44:23;;;;;;;;;;;;;;;;;;4919944;29;19937;-86
2022/10/06 01:46:49;;;;;;;;;;;;;;;;;;4896574;29;19985;-87
2022/10/06 01:49:14;;;;;;;;;;;;;;;;;;4885465;29;20391;-86
2022/10/06 01:51:40;;;;;;;;;;;;;;;;;;4885244;29;19915;-86
2022/10/06 01:54:05;;;;;;;;;;;;;;;;;;4885661;29;19916;-86
2022/10/06 01:56:31;;;;;;;;;;;;;;;;;;4885348;29;19992;-86
2022/10/06 01:58:56;;;;;;;;;;;;;;;;;;4926225;23;19926;-84
2022/10/06 02:01:22;;;;;;;;;;;;;;;;;;4938898;29;19914;-85
2022/10/06 02:03:47;;;;;;;;;;;;;;;;;;4922790;29;19922;-85
2022/10/06 02:06:13;;;;;;;;;;;;;;;;;;4934003;29;19969;-84
2022/10/06 02:08:40;;;;;;;;;;;;;;;;;;4922637;29;19965;-84
2022/10/06 02:11:06;;;;;;;;;;;;;;;;;;4922595;29;20380;-85
2022/10/06 02:13:32;;;;;;;;;;;;;;;;;;4938518;29;19929;-84
2022/10/06 02:15:57;;;;;;;;;;;;;;;;;;4938478;29;19915;-86
2022/10/06 02:18:23;;;;;;;;;;;;;;;;;;4922366;29;19958;-86
2022/10/06 02:20:48;;;;;;;;;;;;;;;;;;4907027;29;19922;-86
2022/10/06 02:23:13;;;;;;;;;;;;;;;;;;4933402;29;20004;-87
2022/10/06 02:25:39;;;;;;;;;;;;;;;;;;4938486;29;19921;-88
2022/10/06 02:28:04;;;;;;;;;;;;;;;;;;4938485;29;20359;-88
2022/10/06 02:30:30;;;;;;;;;;;;;;;;;;4922932;29;20370;-88
2022/10/06 02:32:56;;;;;;;;;;;;;;;;;;4922769;29;19938;-88
2022/10/06 02:35:22;;;;;;;;;;;;;;;;;;4910579;29;19921;-88
2022/10/06 02:37:47;;;;;;;;;;;;;;;;;;4939021;29;19922;-89
2022/10/06 02:40:15;;;;;;;;;;;;;;;;;;4922305;29;20389;-88
2022/10/06 02:42:41;;;;;;;;;;;;;;;;;;4902862;29;19942;-88
2022/10/06 02:45:07;;;;;;;;;;;;;;;;;;4922650;29;19919;-89
2022/10/06 02:47:33;;;;;;;;;;;;;;;;;;4922521;29;19915;-89
2022/10/06 02:49:58;;;;;;;;;;;;;;;;;;4922069;29;19981;-90
2022/10/06 02:52:23;;;;;;;;;;;;;;;;;;4907045;29;19992;-90
2022/10/06 02:54:49;;;;;;;;;;;;;;;;;;4907006;29;19915;-91
2022/10/06 02:57:14;;;;;;;;;;;;;;;;;;4935942;29;19921;-90
2022/10/06 02:59:41;;;;;;;;;;;;;;;;;;4919165;29;20030;-89
2022/10/06 03:02:07;;;;;;;;;;;;;;;;;;4887985;29;19915;-89
2022/10/06 03:04:33;;;;;;;;;;;;;;;;;;4887998;29;19915;-89
2022/10/06 03:06:59;;;;;;;;;;;;;;;;;;4903468;29;19922;-89
2022/10/06 03:09:28;;;;;;;;;;;;;;;;;;4918686;29;19919;-89
2022/10/06 03:11:54;;;;;;;;;;;;;;;;;;4903057;29;19966;-89
2022/10/06 03:14:27;;;;;;;;;;;;;;;;;;4918548;29;19911;-88
2022/10/06 03:16:55;;;;;;;;;;;;;;;;;;4917709;29;19922;-89
2022/10/06 03:19:24;;;;;;;;;;;;;;;;;;4906785;29;19918;-87
2022/10/06 03:21:49;;;;;;;;;;;;;;;;;;4937734;29;20002;-90
2022/10/06 03:24:15;;;;;;;;;;;;;;;;;;4922055;29;20441;-89
2022/10/06 03:26:42;;;;;;;;;;;;;;;;;;4906819;29;20370;-90
2022/10/06 03:29:08;;;;;;;;;;;;;;;;;;4906402;29;19919;-90
2022/10/06 03:31:34;;;;;;;;;;;;;;;;;;4915235;29;19915;-89
2022/10/06 03:34:00;;;;;;;;;;;;;;;;;;4903180;29;19918;-90
2022/10/06 03:36:27;;;;;;;;;;;;;;;;;;4919184;29;19915;-88
2022/10/06 03:38:52;;;;;;;;;;;;;;;;;;4903400;29;20373;-88
2022/10/06 03:41:18;;;;;;;;;;;;;;;;;;4903296;29;19921;-88
2022/10/06 03:43:43;;;;;;;;;;;;;;;;;;4920843;29;20331;-88
2022/10/06 03:46:09;;;;;;;;;;;;;;;;;;4892457;29;19998;-89
2022/10/06 03:48:34;;;;;;;;;;;;;;;;;;4931270;29;19919;-88
2022/10/06 03:50:59;;;;;;;;;;;;;;;;;;4926192;29;19918;-89
2022/10/06 03:53:27;;;;;;;;;;;;;;;;;;4910358;29;19918;-89
2022/10/06 03:55:52;;;;;;;;;;;;;;;;;;4926054;29;19915;-89
2022/10/06 03:58:18;;;;;;;;;;;;;;;;;;4926051;29;20285;-87
2022/10/06 04:00:45;;;;;;;;;;;;;;;;;;4910766;29;19915;-90
2022/10/06 04:03:11;;;;;;;;;;;;;;;;;;4914818;29;20053;-89
2022/10/06 04:05:36;;;;;;;;;;;;;;;;;;4945482;29;19946;-89
2022/10/06 04:08:01;;;;;;;;;;;;;;;;;;4968821;29;19914;-88
2022/10/06 04:10:27;;;;;;;;;;;;;;;;;;4932701;29;19965;-88
2022/10/06 04:12:52;;;;;;;;;;;;;;;;;;4929330;29;19915;-88
2022/10/06 04:15:18;;;;;;;;;;;;;;;;;;4934261;29;19919;-88
2022/10/06 04:17:43;;;;;;;;;;;;;;;;;;4967450;29;19938;-87
2022/10/06 04:20:09;;;;;;;;;;;;;;;;;;4918834;29;20013;-86
2022/10/06 04:22:34;;;;;;;;;;;;;;;;;;4941238;29;19999;-86
2022/10/06 04:25:00;;;;;;;;;;;;;;;;;;4906744;29;19966;-85
2022/10/06 04:27:28;;;;;;;;;;;;;;;;;;4906074;29;19952;-84
2022/10/06 04:30:01;;;;;;;;;;;;;;;;;;4908523;29;19926;-87
2022/10/06 04:32:28;;;;;;;;;;;;;;;;;;4924572;29;19914;-86
2022/10/06 04:34:54;;;;;;;;;;;;;;;;;;4906226;29;19915;-87
2022/10/06 04:37:20;;;;;;;;;;;;;;;;;;4917700;29;19973;-89
2022/10/06 04:39:45;;;;;;;;;;;;;;;;;;4915168;29;19982;-87
2022/10/06 04:42:11;;;;;;;;;;;;;;;;;;4932086;29;19915;-86
2022/10/06 04:44:36;;;;;;;;;;;;;;;;;;4929767;29;19937;-86
2022/10/06 04:47:02;;;;;;;;;;;;;;;;;;4928662;29;19958;-87
2022/10/06 04:49:28;;;;;;;;;;;;;;;;;;4942497;29;19919;-87
2022/10/06 04:51:55;;;;;;;;;;;;;;;;;;4942081;29;19918;-86
2022/10/06 04:54:20;;;;;;;;;;;;;;;;;;4909815;29;20279;-88
2022/10/06 04:56:49;;;;;;;;;;;;;;;;;;4925321;29;19914;-89
2022/10/06 04:59:16;;;;;;;;;;;;;;;;;;4921690;29;20015;-88
2022/10/06 05:01:43;;;;;;;;;;;;;;;;;;4922736;29;19914;-86
2022/10/06 05:04:11;;;;;;;;;;;;;;;;;;4891434;29;20008;-86
2022/10/06 05:06:36;;;;;;;;;;;;;;;;;;4906414;29;19922;-85
2022/10/06 05:09:01;;;;;;;;;;;;;;;;;;4921980;29;19919;-84
2022/10/06 05:11:27;;;;;;;;;;;;;;;;;;4922629;29;19930;-85
2022/10/06 05:13:53;;;;;;;;;;;;;;;;;;4906957;29;19915;-88
2022/10/06 05:16:19;;;;;;;;;;;;;;;;;;4929703;29;19914;-86
2022/10/06 05:18:45;;;;;;;;;;;;;;;;;;4925033;29;19915;-86
2022/10/06 05:21:10;;;;;;;;;;;;;;;;;;4940113;29;19926;-85
2022/10/06 05:23:36;;;;;;;;;;;;;;;;;;4908674;29;19965;-87
2022/10/06 05:26:01;;;;;;;;;;;;;;;;;;4908017;29;19962;-87
2022/10/06 05:28:27;;;;;;;;;;;;;;;;;;4908722;29;19918;-88
2022/10/06 05:30:52;;;;;;;;;;;;;;;;;;4908892;29;20010;-86
2022/10/06 05:33:18;;;;;;;;;;;;;;;;;;4933315;29;20298;-86
2022/10/06 05:35:43;;;;;;;;;;;;;;;;;;4937375;29;19946;-85
2022/10/06 05:38:10;;;;;;;;;;;;;;;;;;4920132;29;19915;-86
2022/10/06 05:40:36;;;;;;;;;;;;;;;;;;4920642;29;19918;-87
2022/10/06 05:43:01;;;;;;;;;;;;;;;;;;4889358;29;19922;-86
2022/10/06 05:45:26;;;;;;;;;;;;;;;;;;4923475;29;19914;-88
2022/10/06 05:47:52;;;;;;;;;;;;;;;;;;4924197;29;19915;-84
2022/10/06 05:50:17;;;;;;;;;;;;;;;;;;4921701;29;19926;-86
2022/10/06 05:52:43;;;;;;;;;;;;;;;;;;4905296;29;19981;-86
2022/10/06 05:55:09;;;;;;;;;;;;;;;;;;4906882;29;19919;-86
2022/10/06 05:57:34;;;;;;;;;;;;;;;;;;4905348;29;20005;-87
2022/10/06 05:59:59;;;;;;;;;;;;;;;;;;4921352;29;20108;-88
2022/10/06 06:02:25;;;;;;;;;;;;;;;;;;4921512;29;19950;-87
2022/10/06 06:04:50;;;;;;;;;;;;;;;;;;4893578;29;20009;-88
2022/10/06 06:07:16;;;;;;;;;;;;;;;;;;4889662;29;20422;-88
2022/10/06 06:09:43;;;;;;;;;;;;;;;;;;4889174;29;19938;-87
2022/10/06 06:12:08;;;;;;;;;;;;;;;;;;4920380;29;19969;-87
2022/10/06 06:17:30;;;;;;;;;;;;;;;;;;4920255;29;21340;-87
2022/10/06 06:19:56;;;;;;;;;;;;;;;;;;4908647;29;19919;-88
2022/10/06 06:22:21;;;;;;;;;;;;;;;;;;4921547;29;19919;-86
2022/10/06 06:24:48;;;;;;;;;;;;;;;;;;4905000;29;19911;-86
2022/10/06 06:27:14;;;;;;;;;;;;;;;;;;4937097;29;19914;-88
2022/10/06 06:29:39;;;;;;;;;;;;;;;;;;4903881;29;20416;-87
2022/10/06 06:32:04;;;;;;;;;;;;;;;;;;4904881;29;19915;-88
2022/10/06 06:34:30;;;;;;;;;;;;;;;;;;4920075;29;19911;-88
2022/10/06 06:36:57;;;;;;;;;;;;;;;;;;4904646;29;20498;-88
2022/10/06 06:39:24;;;;;;;;;;;;;;;;;;4938870;29;19915;-88
2022/10/06 06:41:49;;;;;;;;;;;;;;;;;;4908064;29;19953;-87
2022/10/06 06:44:34;;;;;;;;;;;;;;;;;;4939534;29;20002;-87
2022/10/06 06:47:03;;;;;;;;;;;;;;;;;;4941970;29;19915;-88
2022/10/06 06:49:29;;;;;;;;;;;;;;;;;;4924739;29;20345;-88
2022/10/06 06:52:03;;;;;;;;;;;;;;;;;;4940116;29;19914;-88
2022/10/06 06:54:29;;;;;;;;;;;;;;;;;;4900050;29;19915;-88
2022/10/06 06:57:00;;;;;;;;;;;;;;;;;;4908070;29;19935;-87
2022/10/06 06:59:25;;;;;;;;;;;;;;;;;;4920971;29;19922;-88
2022/10/06 07:01:53;;;;;;;;;;;;;;;;;;4890525;29;19923;-86
2022/10/06 07:04:21;;;;;;;;;;;;;;;;;;4904948;29;19915;-87
2022/10/06 07:06:55;;;;;;;;;;;;;;;;;;4904054;29;20405;-88
2022/10/06 07:09:22;;;;;;;;;;;;;;;;;;4904419;29;19941;-88
2022/10/06 07:11:49;;;;;;;;;;;;;;;;;;4930487;29;20382;-87
2022/10/06 07:14:17;;;;;;;;;;;;;;;;;;4922946;29;19973;-89
2022/10/06 07:25:06;;;;;;;;;;;;;;;;;;4922724;29;19918;-87
2022/10/06 07:27:32;;;;;;;;;;;;;;;;;;4906333;29;19981;-87
2022/10/06 07:29:58;;;;;;;;;;;;;;;;;;4921428;29;20375;-86
2022/10/06 07:32:24;;;;;;;;;;;;;;;;;;4921461;29;19919;-86
2022/10/06 07:34:49;;;;;;;;;;;;;;;;;;4938124;29;20231;-86
2022/10/06 07:37:15;;;;;;;;;;;;;;;;;;4937460;29;20301;-89
2022/10/06 07:39:40;;;;;;;;;;;;;;;;;;4906463;29;20289;-88
2022/10/06 07:42:06;;;;;;;;;;;;;;;;;;4937949;29;19924;-88
2022/10/06 07:44:31;;;;;;;;;;;;;;;;;;4922103;29;19922;-87
2022/10/06 07:46:57;;;;;;;;;;;;;;;;;;4918789;29;19915;-88
2022/10/06 07:49:34;;;;;;;;;;;;;;;;;;4889380;29;20044;-88
2022/10/06 07:52:00;;;;;;;;;;;;;;;;;;4918682;29;20394;-87
2022/10/06 07:54:25;;;;;;;;;;;;;;;;;;4903001;29;20342;-87
2022/10/06 07:57:03;;;;;;;;;;;;;;;;;;4902883;29;19915;-90
2022/10/06 07:59:29;;;;;;;;;;;;;;;;;;4943648;23;20388;-87
2022/10/06 08:01:54;;;;;;;;;;;;;;;;;;4937441;29;20446;-80
2022/10/06 08:04:19;;;;;;;;;;;;;;;;;;4920281;29;20361;-81
2022/10/06 08:06:46;;;;;;;;;;;;;;;;;;4954302;29;19957;-81
2022/10/06 08:09:11;;;;;;;;;;;;;;;;;;4957704;29;19918;-90
2022/10/06 08:11:37;;;;;;;;;;;;;;;;;;4921997;29;19921;-79
2022/10/06 08:14:02;;;;;;;;;;;;;;;;;;4953688;29;19925;-83
2022/10/06 08:16:28;;;;;;;;;;;;;;;;;;4937357;29;19914;-82
2022/10/06 08:18:54;;;;;;;;;;;;;;;;;;4937066;29;19914;-80
2022/10/06 08:21:19;;;;;;;;;;;;;;;;;;4928623;29;19921;-79
2022/10/06 08:23:45;;;;;;;;;;;;;;;;;;4935219;29;19926;-81
2022/10/06 08:26:10;;;;;;;;;;;;;;;;;;4918694;29;20402;-80
2022/10/06 08:28:35;;;;;;;;;;;;;;;;;;4918500;29;19921;-82
2022/10/06 08:31:01;;;;;;;;;;;;;;;;;;4922595;29;20377;-84
2022/10/06 08:33:26;;;;;;;;;;;;;;;;;;4922588;29;19925;-79
2022/10/06 08:35:52;;;;;;;;;;;;;;;;;;4906869;29;19922;-82
2022/10/06 08:38:18;;;;;;;;;;;;;;;;;;4942833;29;19970;-83
2022/10/06 08:40:44;;;;;;;;;;;;;;;;;;4922186;29;19985;-81
2022/10/06 08:43:09;;;;;;;;;;;;;;;;;;4938450;29;19915;-81
2022/10/06 08:45:35;;;;;;;;;;;;;;;;;;4938734;29;19919;-82
2022/10/06 08:48:01;;;;;;;;;;;;;;;;;;4938650;29;19922;-78
2022/10/06 08:50:26;;;;;;;;;;;;;;;;;;4937782;29;19919;-78
2022/10/06 08:52:52;;;;;;;;;;;;;;;;;;4938241;29;19915;-78
2022/10/06 08:55:17;;;;;;;;;;;;;;;;;;4939101;29;20054;-79
2022/10/06 08:57:42;;;;;;;;;;;;;;;;;;4956056;29;19914;-78
2022/10/06 09:00:08;;;;;;;;;;;;;;;;;;4941734;29;20114;-86
2022/10/06 09:02:37;;;;;;;;;;;;;;;;;;4915143;29;19922;-87
2022/10/06 09:05:03;;;;;;;;;;;;;;;;;;4945248;29;19914;-87
2022/10/06 09:07:29;;;;;;;;;;;;;;;;;;4944395;29;19922;-86
2022/10/06 09:09:54;;;;;;;;;;;;;;;;;;4945648;29;19918;-83
2022/10/06 09:12:20;;;;;;;;;;;;;;;;;;4956841;29;19915;-82
2022/10/06 09:14:46;;;;;;;;;;;;;;;;;;4927510;29;20486;-88
2022/10/06 09:17:12;;;;;;;;;;;;;;;;;;4924502;29;19969;-85
2022/10/06 09:19:37;;;;;;;;;;;;;;;;;;4889690;29;20013;-87
2022/10/06 09:22:03;;;;;;;;;;;;;;;;;;4938944;29;19911;-89
2022/10/06 09:24:29;;;;;;;;;;;;;;;;;;4922367;29;19915;-89
2022/10/06 09:26:54;;;;;;;;;;;;;;;;;;4925771;29;19915;-87
2022/10/06 09:29:20;;;;;;;;;;;;;;;;;;4909287;29;19969;-89
2022/10/06 09:31:49;;;;;;;;;;;;;;;;;;4914225;29;19972;-88
2022/10/06 09:34:14;;;;;;;;;;;;;;;;;;4918811;29;19986;-91
2022/10/06 09:36:40;;;;;;;;;;;;;;;;;;4934199;29;20363;-87
2022/10/06 09:39:05;;;;;;;;;;;;;;;;;;4930220;29;20377;-88
2022/10/06 09:41:31;;;;;;;;;;;;;;;;;;4956101;28;19917;-86
2022/10/06 09:43:56;;;;;;;;;;;;;;;;;;4925785;29;19965;-87
2022/10/06 09:46:22;;;;;;;;;;;;;;;;;;4953433;29;19946;-86
2022/10/06 09:48:50;;;;;;;;;;;;;;;;;;4970094;29;19926;-86
2022/10/06 09:51:16;;;;;;;;;;;;;;;;;;4949766;29;20531;-91
2022/10/06 09:53:41;;;;;;;;;;;;;;;;;;4936539;29;20027;-88
2022/10/06 09:56:06;;;;;;;;;;;;;;;;;;4936945;29;19914;-88
2022/10/06 09:58:36;;;;;;;;;;;;;;;;;;4906966;29;19925;-88
2022/10/06 10:01:02;;;;;;;;;;;;;;;;;;4921444;29;19915;-89
2022/10/06 10:03:30;;;;;;;;;;;;;;;;;;4954158;29;19914;-90
2022/10/06 10:05:55;;;;;;;;;;;;;;;;;;4922746;29;19918;-87
2022/10/06 10:08:21;;;;;;;;;;;;;;;;;;4919282;29;20259;-91
2022/10/06 10:10:46;;;;;;;;;;;;;;;;;;4916001;29;19918;-91
2022/10/06 10:13:12;;;;;;;;;;;;;;;;;;4923811;29;19950;-90
2022/10/06 10:15:39;;;;;;;;;;;;;;;;;;4901517;29;19930;-88
2022/10/06 10:18:04;;;;;;;;;;;;;;;;;;4898274;29;19915;-89
2022/10/06 10:20:32;;;;;;;;;;;;;;;;;;4899894;29;20278;-90
2022/10/06 10:22:58;;;;;;;;;;;;;;;;;;4932166;29;19915;-89
2022/10/06 10:25:23;;;;;;;;;;;;;;;;;;4930932;29;19921;-89
2022/10/06 10:27:50;;;;;;;;;;;;;;;;;;4944509;29;20299;-88
2022/10/06 10:30:15;;;;;;;;;;;;;;;;;;4932701;29;19975;-89
2022/10/06 10:32:41;;;;;;;;;;;;;;;;;;4906209;29;19950;-89
2022/10/06 10:35:06;;;;;;;;;;;;;;;;;;4913812;29;20008;-87
2022/10/06 10:37:31;;;;;;;;;;;;;;;;;;4897467;29;19915;-88
2022/10/06 10:40:00;;;;;;;;;;;;;;;;;;4908942;29;20259;-89
2022/10/06 10:42:28;;;;;;;;;;;;;;;;;;4910588;29;19993;-89
2022/10/06 10:44:54;;;;;;;;;;;;;;;;;;4891991;29;19993;-89
2022/10/06 10:47:19;;;;;;;;;;;;;;;;;;4913277;29;20040;-90
2022/10/06 10:49:45;;;;;;;;;;;;;;;;;;4928160;29;19922;-88
2022/10/06 10:52:10;;;;;;;;;;;;;;;;;;4911039;28;20306;-87
2022/10/06 10:54:36;;;;;;;;;;;;;;;;;;4910926;29;20298;-85
2022/10/06 10:57:02;;;;;;;;;;;;;;;;;;4929803;29;19914;-87
2022/10/06 10:59:29;;;;;;;;;;;;;;;;;;4895141;29;19999;-88
2022/10/06 11:01:54;;;;;;;;;;;;;;;;;;4930672;29;20377;-87
2022/10/06 11:04:20;;;;;;;;;;;;;;;;;;4918080;29;19971;-86
2022/10/06 11:06:45;;;;;;;;;;;;;;;;;;4906682;29;20382;-88
2022/10/06 11:09:11;;;;;;;;;;;;;;;;;;4924353;29;20087;-88
2022/10/06 11:11:36;;;;;;;;;;;;;;;;;;4922621;29;19979;-86
2022/10/06 11:14:02;;;;;;;;;;;;;;;;;;4930349;29;19922;-85
2022/10/06 11:16:28;;;;;;;;;;;;;;;;;;4924675;29;19914;-86
2022/10/06 11:18:53;;;;;;;;;;;;;;;;;;4943419;29;19987;-87
2022/10/06 11:21:19;;;;;;;;;;;;;;;;;;4925432;29;19914;-84
2022/10/06 11:23:45;;;;;;;;;;;;;;;;;;4954790;29;20293;-79
2022/10/06 11:26:11;;;;;;;;;;;;;;;;;;4937568;29;19922;-80
2022/10/06 11:28:36;;;;;;;;;;;;;;;;;;4955129;29;19919;-79
2022/10/06 11:31:02;;;;;;;;;;;;;;;;;;4938539;29;20357;-78
2022/10/06 11:33:28;;;;;;;;;;;;;;;;;;4955410;29;19915;-79
2022/10/06 11:35:59;;;;;;;;;;;;;;;;;;4956706;29;20005;-79
2022/10/06 11:38:25;;;;;;;;;;;;;;;;;;4957371;29;19921;-79
2022/10/06 11:40:50;;;;;;;;;;;;;;;;;;4956875;29;20294;-79
2022/10/06 11:43:16;;;;;;;;;;;;;;;;;;4936436;29;20234;-82
2022/10/06 11:45:41;;;;;;;;;;;;;;;;;;4954463;29;19987;-81
2022/10/06 11:48:09;;;;;;;;;;;;;;;;;;4954025;29;19915;-80
2022/10/06 11:50:35;;;;;;;;;;;;;;;;;;4920669;29;20005;-81
2022/10/06 11:53:00;;;;;;;;;;;;;;;;;;4936849;29;19934;-80
2022/10/06 11:55:27;;;;;;;;;;;;;;;;;;4905615;29;19915;-80
2022/10/06 11:57:53;;;;;;;;;;;;;;;;;;4953786;29;19969;-81
2022/10/06 12:00:19;;;;;;;;;;;;;;;;;;4954356;29;19918;-86
2022/10/06 12:02:44;;;;;;;;;;;;;;;;;;4906041;29;19921;-80
2022/10/06 12:05:10;;;;;;;;;;;;;;;;;;4942164;29;19914;-81
2022/10/06 12:07:35;;;;;;;;;;;;;;;;;;4942308;29;19925;-81
2022/10/06 12:10:00;;;;;;;;;;;;;;;;;;4959952;29;20290;-79
2022/10/06 12:12:26;;;;;;;;;;;;;;;;;;4959769;29;19914;-81
2022/10/06 12:14:53;;;;;;;;;;;;;;;;;;4941617;29;20477;-81
2022/10/06 12:17:18;;;;;;;;;;;;;;;;;;4941386;29;20013;-79
2022/10/06 12:19:45;;;;;;;;;;;;;;;;;;4924610;29;20009;-80
2022/10/06 12:22:11;;;;;;;;;;;;;;;;;;4924834;29;19920;-82
2022/10/06 12:24:36;;;;;;;;;;;;;;;;;;4940943;29;19918;-80
2022/10/06 12:27:02;;;;;;;;;;;;;;;;;;4940366;29;20381;-80
2022/10/06 12:29:27;;;;;;;;;;;;;;;;;;4957508;29;20397;-80
2022/10/06 12:31:52;;;;;;;;;;;;;;;;;;4957959;29;19911;-81
2022/10/06 12:34:18;;;;;;;;;;;;;;;;;;4925046;29;20409;-81
2022/10/06 12:36:43;;;;;;;;;;;;;;;;;;4957537;29;20302;-82
2022/10/06 12:39:11;;;;;;;;;;;;;;;;;;4957470;29;19915;-83
2022/10/06 12:41:37;;;;;;;;;;;;;;;;;;4926598;29;19918;-83
2022/10/06 12:44:04;;;;;;;;;;;;;;;;;;4958712;29;19914;-83
2022/10/06 12:46:29;;;;;;;;;;;;;;;;;;4964955;29;20009;-83
2022/10/06 12:48:54;;;;;;;;;;;;;;;;;;4943073;29;20325;-84
2022/10/06 12:51:20;;;;;;;;;;;;;;;;;;4947468;29;20335;-81
2022/10/06 12:53:46;;;;;;;;;;;;;;;;;;4938174;29;19958;-79
2022/10/06 12:56:13;;;;;;;;;;;;;;;;;;4943461;29;19921;-83
2022/10/06 12:58:39;;;;;;;;;;;;;;;;;;4913334;29;19982;-79
2022/10/06 13:01:05;;;;;;;;;;;;;;;;;;4921324;29;19915;-80
2022/10/06 13:03:30;;;;;;;;;;;;;;;;;;4920959;29;19942;-80
2022/10/06 13:05:56;;;;;;;;;;;;;;;;;;4920711;29;20010;-79
2022/10/06 13:08:21;;;;;;;;;;;;;;;;;;4938829;29;20382;-81
2022/10/06 13:10:47;;;;;;;;;;;;;;;;;;4920809;29;19954;-80
2022/10/06 13:13:12;;;;;;;;;;;;;;;;;;4937936;29;20346;-83
2022/10/06 13:15:40;;;;;;;;;;;;;;;;;;4920955;29;20386;-81
2022/10/06 13:18:05;;;;;;;;;;;;;;;;;;4920199;29;20298;-81
2022/10/06 13:20:31;;;;;;;;;;;;;;;;;;4937307;29;19914;-82
2022/10/06 13:22:56;;;;;;;;;;;;;;;;;;4919849;29;19917;-82
2022/10/06 13:25:22;;;;;;;;;;;;;;;;;;4937199;29;19926;-82
2022/10/06 13:27:47;;;;;;;;;;;;;;;;;;4937730;29;19922;-83
2022/10/06 13:30:13;;;;;;;;;;;;;;;;;;4937822;29;20115;-80
2022/10/06 13:32:38;;;;;;;;;;;;;;;;;;4926113;29;19921;-81
2022/10/06 13:35:04;;;;;;;;;;;;;;;;;;4937894;29;19914;-80
2022/10/06 13:37:29;;;;;;;;;;;;;;;;;;4938063;29;20015;-80
2022/10/06 13:39:54;;;;;;;;;;;;;;;;;;4938891;29;20355;-81
2022/10/06 13:42:22;;;;;;;;;;;;;;;;;;4931149;29;20393;-83
2022/10/06 13:44:50;;;;;;;;;;;;;;;;;;4961076;29;19915;-83
2022/10/06 13:47:16;;;;;;;;;;;;;;;;;;4948466;29;19918;-82
2022/10/06 13:49:41;;;;;;;;;;;;;;;;;;4928777;29;19959;-80
2022/10/06 13:52:07;;;;;;;;;;;;;;;;;;4906160;29;19911;-81
2022/10/06 13:54:32;;;;;;;;;;;;;;;;;;4936473;29;19921;-78
2022/10/06 13:56:58;;;;;;;;;;;;;;;;;;4919322;29;20405;-79
2022/10/06 13:59:23;;;;;;;;;;;;;;;;;;4930287;23;19927;-76
2022/10/06 14:01:49;;;;;;;;;;;;;;;;;;4900151;29;20410;-77
2022/10/06 14:04:17;;;;;;;;;;;;;;;;;;4916543;29;19962;-76
2022/10/06 14:06:42;;;;;;;;;;;;;;;;;;4916568;29;20323;-78
2022/10/06 14:09:07;;;;;;;;;;;;;;;;;;4915268;29;19929;-76
2022/10/06 14:11:33;;;;;;;;;;;;;;;;;;4899822;29;20390;-75
2022/10/06 14:14:02;;;;;;;;;;;;;;;;;;4910046;29;20032;-76
2022/10/06 14:16:28;;;;;;;;;;;;;;;;;;4904501;29;20110;-77
2022/10/06 14:18:54;;;;;;;;;;;;;;;;;;4900154;29;20453;-76
2022/10/06 14:21:19;;;;;;;;;;;;;;;;;;4901681;29;20223;-76
2022/10/06 14:23:45;;;;;;;;;;;;;;;;;;4914560;29;19915;-77
2022/10/06 14:26:10;;;;;;;;;;;;;;;;;;4913236;29;19911;-77
2022/10/06 14:28:36;;;;;;;;;;;;;;;;;;4917756;29;19915;-77
2022/10/06 14:31:01;;;;;;;;;;;;;;;;;;4934603;29;20298;-80
2022/10/06 14:33:27;;;;;;;;;;;;;;;;;;4918171;29;19915;-77
2022/10/06 14:35:52;;;;;;;;;;;;;;;;;;4933838;29;19923;-77
2022/10/06 14:38:18;;;;;;;;;;;;;;;;;;4928370;29;20451;-78
2022/10/06 14:40:43;;;;;;;;;;;;;;;;;;4894988;29;20260;-77
2022/10/06 14:43:09;;;;;;;;;;;;;;;;;;4898614;29;19923;-78
2022/10/06 14:45:36;;;;;;;;;;;;;;;;;;4901995;29;19921;-77
2022/10/06 14:48:03;;;;;;;;;;;;;;;;;;4921014;29;20000;-77
2022/10/06 14:50:29;;;;;;;;;;;;;;;;;;4915908;29;19922;-79
2022/10/06 14:52:57;;;;;;;;;;;;;;;;;;4920735;29;20038;-79
2022/10/06 14:55:29;;;;;;;;;;;;;;;;;;4908993;29;20154;-78
2022/10/06 14:57:54;;;;;;;;;;;;;;;;;;4917905;29;19922;-78
2022/10/06 15:00:20;;;;;;;;;;;;;;;;;;4915046;29;19919;-78
2022/10/06 15:02:46;;;;;;;;;;;;;;;;;;4914512;29;20287;-79
2022/10/06 15:05:12;;;;;;;;;;;;;;;;;;4901796;29;20361;-78
2022/10/06 15:10:22;;;;;;;;;;;;;;;;;;4900515;29;19919;-78
2022/10/06 15:12:49;;;;;;;;;;;;;;;;;;4917359;29;19977;-78
2022/10/06 15:15:15;;;;;;;;;;;;;;;;;;4926587;29;19978;-77
2022/10/06 15:17:41;;;;;;;;;;;;;;;;;;4901684;29;20009;-77
2022/10/06 15:20:06;;;;;;;;;;;;;;;;;;4920102;29;20063;-78
2022/10/06 15:22:32;;;;;;;;;;;;;;;;;;4931192;29;19962;-78
2022/10/06 15:24:57;;;;;;;;;;;;;;;;;;4921152;29;20343;-79
2022/10/06 15:30:07;;;;;;;;;;;;;;;;;;4930015;29;20022;-78
2022/10/06 15:32:33;;;;;;;;;;;;;;;;;;4917010;29;19967;-77
2022/10/06 15:34:59;;;;;;;;;;;;;;;;;;4914155;29;20268;-79
2022/10/06 15:37:24;;;;;;;;;;;;;;;;;;4917343;29;19915;-77
2022/10/06 15:39:51;;;;;;;;;;;;;;;;;;4915932;29;19916;-78
2022/10/06 15:42:20;;;;;;;;;;;;;;;;;;4920551;29;19965;-78
2022/10/06 15:44:45;;;;;;;;;;;;;;;;;;4920946;29;19915;-77
2022/10/06 15:47:11;;;;;;;;;;;;;;;;;;4930630;29;20358;-77
2022/10/06 15:49:39;;;;;;;;;;;;;;;;;;4905035;29;19962;-78
2022/10/06 15:52:05;;;;;;;;;;;;;;;;;;4902193;29;20183;-79
2022/10/06 15:54:32;;;;;;;;;;;;;;;;;;4918741;29;20287;-79
2022/10/06 15:56:58;;;;;;;;;;;;;;;;;;4921001;29;19915;-78
2022/10/06 15:59:23;;;;;;;;;;;;;;;;;;4917669;29;19919;-79
2022/10/06 16:01:50;;;;;;;;;;;;;;;;;;4932263;29;19958;-77
2022/10/06 16:04:22;;;;;;;;;;;;;;;;;;4918686;29;20350;-78
2022/10/06 16:06:49;;;;;;;;;;;;;;;;;;4933944;29;19915;-78
2022/10/06 16:09:14;;;;;;;;;;;;;;;;;;4920975;29;19918;-76
2022/10/06 16:11:40;;;;;;;;;;;;;;;;;;4917583;29;19915;-77
2022/10/06 16:14:05;;;;;;;;;;;;;;;;;;4904838;29;20338;-77
2022/10/06 16:16:31;;;;;;;;;;;;;;;;;;4919905;29;19955;-78
2022/10/06 16:18:57;;;;;;;;;;;;;;;;;;4931834;29;19915;-77
2022/10/06 16:21:23;;;;;;;;;;;;;;;;;;4920672;29;19914;-78
2022/10/06 16:23:48;;;;;;;;;;;;;;;;;;4917319;29;19922;-78
2022/10/06 16:26:13;;;;;;;;;;;;;;;;;;4920676;29;19989;-77
2022/10/06 16:28:39;;;;;;;;;;;;;;;;;;4921476;29;20351;-77
2022/10/06 16:31:05;;;;;;;;;;;;;;;;;;4931460;29;19922;-77
2022/10/06 16:33:30;;;;;;;;;;;;;;;;;;4916817;29;19915;-78
2022/10/06 16:35:56;;;;;;;;;;;;;;;;;;4914798;29;20291;-77
2022/10/06 16:38:22;;;;;;;;;;;;;;;;;;4917935;29;19915;-77
2022/10/06 16:40:47;;;;;;;;;;;;;;;;;;4900715;29;19950;-77
2022/10/06 16:43:13;;;;;;;;;;;;;;;;;;4920057;29;19919;-77
2022/10/06 16:45:39;;;;;;;;;;;;;;;;;;4917106;29;19918;-78
2022/10/06 16:48:04;;;;;;;;;;;;;;;;;;4920401;29;20535;-77
2022/10/06 16:50:30;;;;;;;;;;;;;;;;;;4917698;29;19919;-78
2022/10/06 16:52:55;;;;;;;;;;;;;;;;;;4931458;29;20283;-78